createdAt,value
2018-08-10T00:00:41.213Z,7.33
2018-08-10T00:03:09.847Z,7.07
2018-08-10T00:05:38.975Z,6.30
2018-08-10T00:08:07.492Z,6.40
2018-08-10T00:10:35.852Z,7.20
2018-08-10T00:13:04.349Z,6.70
2018-08-10T00:15:32.762Z,6.63
2018-08-10T00:18:01.209Z,7.10
2018-08-10T00:20:30.032Z,6.67
2018-08-10T00:22:58.399Z,6.90
2018-08-10T00:25:26.764Z,7.50
2018-08-10T00:27:55.177Z,6.97
2018-08-10T00:30:23.602Z,6.73
2018-08-10T00:32:51.962Z,6.90
2018-08-10T00:35:20.301Z,6.80
2018-08-10T00:37:49.327Z,6.43
2018-08-10T00:40:19.291Z,6.37
2018-08-10T00:42:47.846Z,6.97
2018-08-10T00:45:17.001Z,6.80
2018-08-10T00:47:45.781Z,6.77
2018-08-10T00:50:15.297Z,6.97
2018-08-10T00:52:45.029Z,6.40
2018-08-10T00:55:14.718Z,6.13
2018-08-10T00:57:43.505Z,6.10
2018-08-10T01:00:16.050Z,6.23
2018-08-10T01:02:44.430Z,6.40
2018-08-10T01:05:12.780Z,6.53
2018-08-10T01:07:41.140Z,6.30
2018-08-10T01:10:13.049Z,6.17
2018-08-10T01:12:41.761Z,5.93
2018-08-10T01:15:12.297Z,6.13
2018-08-10T01:17:40.872Z,6.23
2018-08-10T01:20:14.173Z,5.53
2018-08-10T01:22:44.616Z,5.70
2018-08-10T01:25:13.388Z,5.60
2018-08-10T01:27:47.043Z,5.00
2018-08-10T01:30:15.404Z,5.50
2018-08-10T01:32:44.357Z,5.20
2018-08-10T01:35:12.753Z,5.17
2018-08-10T01:37:41.291Z,5.27
2018-08-10T01:40:09.909Z,5.10
2018-08-10T01:42:38.719Z,5.03
2018-08-10T01:45:08.694Z,4.87
2018-08-10T01:47:37.129Z,4.50
2018-08-10T01:50:06.188Z,5.17
2018-08-10T01:52:34.566Z,4.40
2018-08-10T01:55:03.146Z,5.07
2018-08-10T01:57:31.637Z,5.00
2018-08-10T02:00:00.833Z,4.40
2018-08-10T02:02:29.182Z,4.53
2018-08-10T02:04:57.570Z,4.70
2018-08-10T02:07:25.991Z,4.23
2018-08-10T02:09:54.370Z,4.63
2018-08-10T02:12:22.854Z,4.20
2018-08-10T02:14:51.230Z,4.00
2018-08-10T02:17:19.612Z,4.27
2018-08-10T02:19:48.024Z,4.13
2018-08-10T02:22:16.459Z,3.83
2018-08-10T02:24:44.911Z,3.87
2018-08-10T02:27:13.334Z,4.03
2018-08-10T02:29:41.781Z,4.17
2018-08-10T02:32:10.142Z,3.60
2018-08-10T02:34:39.081Z,3.90
2018-08-10T02:37:07.516Z,3.77
2018-08-10T02:39:35.847Z,3.80
2018-08-10T02:42:04.217Z,3.43
2018-08-10T02:44:32.820Z,3.60
2018-08-10T02:47:01.214Z,3.60
2018-08-10T02:49:29.621Z,3.67
2018-08-10T02:51:58.009Z,4.00
2018-08-10T02:54:26.462Z,3.70
2018-08-10T02:56:54.855Z,2.97
2018-08-10T02:59:23.240Z,3.27
2018-08-10T03:01:51.587Z,3.10
2018-08-10T03:04:19.971Z,3.20
2018-08-10T03:06:48.358Z,3.30
2018-08-10T03:09:16.742Z,3.37
2018-08-10T03:11:45.112Z,3.10
2018-08-10T03:14:13.480Z,2.70
2018-08-10T03:16:41.834Z,2.83
2018-08-10T03:19:10.212Z,2.83
2018-08-10T03:21:38.618Z,3.07
2018-08-10T03:24:07.009Z,3.33
2018-08-10T03:26:35.376Z,2.87
2018-08-10T03:29:03.788Z,3.13
2018-08-10T03:31:32.137Z,2.50
2018-08-10T03:34:00.553Z,2.70
2018-08-10T03:36:29.410Z,2.87
2018-08-10T03:38:57.757Z,2.70
2018-08-10T03:41:26.129Z,2.50
2018-08-10T03:43:54.515Z,2.67
2018-08-10T03:46:22.921Z,3.07
2018-08-10T03:48:51.720Z,3.07
2018-08-10T03:51:20.100Z,2.73
2018-08-10T03:53:48.494Z,2.83
2018-08-10T03:56:16.926Z,2.67
2018-08-10T03:58:45.884Z,2.70
2018-08-10T04:01:14.260Z,2.93
2018-08-10T04:03:43.472Z,2.43
2018-08-10T04:06:11.846Z,2.90
2018-08-10T04:08:40.222Z,2.67
2018-08-10T04:11:08.583Z,2.50
2018-08-10T04:13:36.945Z,2.60
2018-08-10T04:16:05.362Z,2.53
2018-08-10T04:18:33.968Z,2.63
2018-08-10T04:21:02.306Z,2.60
2018-08-10T04:23:30.655Z,2.30
2018-08-10T04:25:59.032Z,2.50
2018-08-10T04:28:27.485Z,2.70
2018-08-10T04:30:55.896Z,2.40
2018-08-10T04:33:24.724Z,2.63
2018-08-10T04:35:53.100Z,3.30
2018-08-10T04:38:21.569Z,2.90
2018-08-10T04:40:49.892Z,2.90
2018-08-10T04:43:18.237Z,2.40
2018-08-10T04:45:47.046Z,3.73
2018-08-10T04:48:15.477Z,2.63
2018-08-10T04:50:43.853Z,2.57
2018-08-10T04:53:12.230Z,2.50
2018-08-10T04:55:40.635Z,2.30
2018-08-10T04:58:09.047Z,2.10
2018-08-10T05:00:37.398Z,2.50
2018-08-10T05:03:05.743Z,7.13
2018-08-10T05:05:34.119Z,7.43
2018-08-10T05:08:02.477Z,2.13
2018-08-10T05:10:30.817Z,2.40
2018-08-10T05:12:59.197Z,2.27
2018-08-10T05:15:27.569Z,4.60
2018-08-10T05:17:56.010Z,2.17
2018-08-10T05:20:24.417Z,1.83
2018-08-10T05:22:52.792Z,1.80
2018-08-10T05:25:21.157Z,1.80
2018-08-10T05:27:49.611Z,1.63
2018-08-10T05:30:17.954Z,1.77
2018-08-10T05:32:46.326Z,1.80
2018-08-10T05:35:14.706Z,1.77
2018-08-10T05:37:43.124Z,1.60
2018-08-10T05:40:11.705Z,1.50
2018-08-10T05:42:40.186Z,1.87
2018-08-10T05:45:08.771Z,1.70
2018-08-10T05:47:37.729Z,1.93
2018-08-10T05:50:06.755Z,1.50
2018-08-10T05:52:35.656Z,1.63
2018-08-10T05:55:05.836Z,1.17
2018-08-10T05:57:34.228Z,1.00
2018-08-10T06:00:02.586Z,1.00
2018-08-10T06:02:31.006Z,0.90
2018-08-10T06:05:00.037Z,0.73
2018-08-10T06:07:28.862Z,0.90
2018-08-10T06:09:57.546Z,0.50
2018-08-10T06:12:26.538Z,0.50
2018-08-10T06:14:55.025Z,0.60
2018-08-10T06:17:23.461Z,0.70
2018-08-10T06:19:51.836Z,0.60
2018-08-10T06:22:20.364Z,0.60
2018-08-10T06:24:48.943Z,0.60
2018-08-10T06:27:17.769Z,0.60
2018-08-10T06:29:46.140Z,0.50
2018-08-10T06:32:14.664Z,0.60
2018-08-10T06:34:43.078Z,0.60
2018-08-10T06:37:11.459Z,0.70
2018-08-10T06:39:39.870Z,0.70
2018-08-10T06:42:08.252Z,0.60
2018-08-10T06:44:36.757Z,0.77
2018-08-10T06:47:05.179Z,0.80
2018-08-10T06:49:33.587Z,0.73
2018-08-10T06:52:02.024Z,0.60
2018-08-10T06:54:30.385Z,0.83
2018-08-10T06:56:58.776Z,0.80
2018-08-10T06:59:27.143Z,0.70
2018-08-10T07:01:55.520Z,0.60
2018-08-10T07:04:23.860Z,0.50
2018-08-10T07:06:52.211Z,0.80
2018-08-10T07:09:20.649Z,0.60
2018-08-10T07:11:49.007Z,0.70
2018-08-10T07:14:17.376Z,0.80
2018-08-10T07:16:45.796Z,1.20
2018-08-10T07:19:14.180Z,0.60
2018-08-10T07:21:42.560Z,0.70
2018-08-10T07:24:10.951Z,0.67
2018-08-10T07:26:39.348Z,0.60
2018-08-10T07:29:07.733Z,0.57
2018-08-10T07:31:36.162Z,0.60
2018-08-10T07:34:04.509Z,0.70
2018-08-10T07:36:32.891Z,0.50
2018-08-10T07:39:01.252Z,0.73
2018-08-10T07:41:29.628Z,0.60
2018-08-10T07:43:58.058Z,0.70
2018-08-10T07:46:26.502Z,0.53
2018-08-10T07:48:55.138Z,0.63
2018-08-10T07:51:23.487Z,0.70
2018-08-10T07:53:51.929Z,0.70
2018-08-10T07:56:20.310Z,0.80
2018-08-10T07:58:48.661Z,0.60
2018-08-10T08:01:17.004Z,0.67
2018-08-10T08:03:45.399Z,0.43
2018-08-10T08:06:13.887Z,0.40
2018-08-10T08:08:42.225Z,0.70
2018-08-10T08:11:10.687Z,0.50
2018-08-10T08:13:39.097Z,1.10
2018-08-10T08:16:07.493Z,0.50
2018-08-10T08:18:36.357Z,0.50
2018-08-10T08:21:07.091Z,0.43
2018-08-10T08:23:35.792Z,0.70
2018-08-10T08:26:04.771Z,0.70
2018-08-10T08:28:33.474Z,1.00
2018-08-10T08:31:02.779Z,0.90
2018-08-10T08:33:31.140Z,0.50
2018-08-10T08:36:00.848Z,0.60
2018-08-10T08:38:40.524Z,0.70
2018-08-10T08:41:09.997Z,0.40
2018-08-10T08:46:24.185Z,0.60
2018-08-10T08:48:53.155Z,0.73
2018-08-10T08:51:23.088Z,0.43
2018-08-10T08:54:02.645Z,0.50
2018-08-10T08:56:42.185Z,0.60
2018-08-10T08:59:10.586Z,0.53
2018-08-10T09:01:38.995Z,0.50
2018-08-10T09:05:10.907Z,0.60
2018-08-10T09:07:39.762Z,0.60
2018-08-10T09:10:13.148Z,0.60
2018-08-10T09:12:41.858Z,1.10
2018-08-10T09:15:12.210Z,0.80
2018-08-10T09:17:40.750Z,1.00
2018-08-10T09:20:09.887Z,1.00
2018-08-10T09:22:38.376Z,0.70
2018-08-10T09:25:09.399Z,0.60
2018-08-10T09:27:37.904Z,0.60
2018-08-10T09:30:08.702Z,0.63
2018-08-10T09:32:37.388Z,0.60
2018-08-10T09:35:06.894Z,0.70
2018-08-10T09:37:35.388Z,0.60
2018-08-10T09:40:04.504Z,0.73
2018-08-10T09:42:32.930Z,0.80
2018-08-10T09:45:01.365Z,0.60
2018-08-10T09:47:29.824Z,0.63
2018-08-10T09:49:58.283Z,0.70
2018-08-10T09:52:26.766Z,0.77
2018-08-10T09:55:38.908Z,0.40
2018-08-10T09:58:14.775Z,0.50
2018-08-10T10:00:48.578Z,0.70
2018-08-10T10:03:18.281Z,0.70
2018-08-10T10:05:47.580Z,0.67
2018-08-10T10:08:16.457Z,0.50
2018-08-10T10:10:44.937Z,0.63
2018-08-10T10:13:13.390Z,0.83
2018-08-10T10:15:42.907Z,0.60
2018-08-10T10:18:12.736Z,0.60
2018-08-10T10:20:41.339Z,0.70
2018-08-10T10:23:09.774Z,0.50
2018-08-10T10:25:38.606Z,0.87
2018-08-10T10:28:08.009Z,0.72
2018-08-10T10:30:36.476Z,0.72
2018-08-10T10:33:04.857Z,0.60
2018-08-10T10:35:33.486Z,0.60
2018-08-10T10:38:02.497Z,0.75
2018-08-10T10:40:30.902Z,0.65
2018-08-10T10:42:59.338Z,1.00
2018-08-10T10:45:27.717Z,0.72
2018-08-10T10:47:56.125Z,0.70
2018-08-10T10:50:24.502Z,0.80
2018-08-10T10:52:53.007Z,0.50
2018-08-10T10:55:21.476Z,0.83
2018-08-10T10:57:50.367Z,0.97
2018-08-10T11:00:20.584Z,1.10
2018-08-10T11:02:49.732Z,0.70
2018-08-10T11:05:18.396Z,0.63
2018-08-10T11:07:47.359Z,0.80
2018-08-10T11:10:17.143Z,0.70
2018-08-10T11:12:45.549Z,1.00
2018-08-10T11:15:14.375Z,2.80
2018-08-10T11:17:42.959Z,1.30
2018-08-10T11:20:12.938Z,1.00
2018-08-10T11:22:41.872Z,1.00
2018-08-10T11:25:11.960Z,1.00
2018-08-10T11:27:41.594Z,1.47
2018-08-10T11:30:10.587Z,0.87
2018-08-10T11:32:38.929Z,1.10
2018-08-10T11:35:07.845Z,1.00
2018-08-10T11:37:36.317Z,1.10
2018-08-10T11:40:07.163Z,1.17
2018-08-10T11:42:35.533Z,1.00
2018-08-10T11:45:04.458Z,1.33
2018-08-10T11:47:32.891Z,1.43
2018-08-10T11:50:01.291Z,1.30
2018-08-10T11:52:29.773Z,1.30
2018-08-10T11:54:58.236Z,1.20
2018-08-10T11:57:26.658Z,1.07
2018-08-10T11:59:55.652Z,1.47
2018-08-10T12:02:24.096Z,0.90
2018-08-10T12:04:52.507Z,1.20
2018-08-10T12:07:20.983Z,1.10
2018-08-10T12:09:49.400Z,1.30
2018-08-10T12:12:17.773Z,1.10
2018-08-10T12:14:46.155Z,1.30
2018-08-10T12:17:14.536Z,1.53
2018-08-10T12:19:43.498Z,0.90
2018-08-10T12:22:11.860Z,1.07
2018-08-10T12:25:16.595Z,1.10
2018-08-10T12:27:45.007Z,1.20
2018-08-10T12:30:14.772Z,1.03
2018-08-10T12:32:43.098Z,1.03
2018-08-10T12:35:11.971Z,1.00
2018-08-10T12:37:40.420Z,1.10
2018-08-10T12:40:09.066Z,1.13
2018-08-10T12:42:37.824Z,1.13
2018-08-10T12:45:06.739Z,1.00
2018-08-10T12:47:35.414Z,1.10
2018-08-10T12:50:03.875Z,1.60
2018-08-10T12:52:32.326Z,3.50
2018-08-10T12:55:00.751Z,1.23
2018-08-10T12:57:29.340Z,1.27
2018-08-10T12:59:58.373Z,1.17
2018-08-10T13:02:27.010Z,1.27
2018-08-10T13:04:55.467Z,0.77
2018-08-10T13:07:23.952Z,0.97
2018-08-10T13:09:53.734Z,0.90
2018-08-10T13:12:22.193Z,0.80
2018-08-10T13:14:51.037Z,0.93
2018-08-10T13:17:20.873Z,1.00
2018-08-10T13:19:49.313Z,1.03
2018-08-10T13:22:17.831Z,0.83
2018-08-10T13:24:46.274Z,0.90
2018-08-10T13:27:14.755Z,0.80
2018-08-10T13:29:43.202Z,0.70
2018-08-10T13:32:11.650Z,0.93
2018-08-10T13:34:40.098Z,1.57
2018-08-10T13:37:08.509Z,1.00
2018-08-10T13:39:36.956Z,0.77
2018-08-10T13:42:05.386Z,1.10
2018-08-10T13:44:34.237Z,1.00
2018-08-10T13:47:02.706Z,0.87
2018-08-10T13:49:31.039Z,1.13
2018-08-10T13:51:59.422Z,1.13
2018-08-10T13:54:27.868Z,1.00
2018-08-10T13:56:56.329Z,0.80
2018-08-10T13:59:24.761Z,0.90
2018-08-10T14:01:53.492Z,0.80
2018-08-10T14:04:21.967Z,0.90
2018-08-10T14:06:50.491Z,1.00
2018-08-10T14:09:18.920Z,1.00
2018-08-10T14:11:47.285Z,0.67
2018-08-10T14:14:16.341Z,1.00
2018-08-10T14:16:44.801Z,1.00
2018-08-10T14:19:13.461Z,1.00
2018-08-10T14:21:42.022Z,1.20
2018-08-10T14:24:10.848Z,0.97
2018-08-10T14:26:39.674Z,0.87
2018-08-10T14:29:08.637Z,1.00
2018-08-10T14:31:37.027Z,0.87
2018-08-10T14:34:05.902Z,0.70
2018-08-10T14:36:34.282Z,1.00
2018-08-10T14:39:02.771Z,0.93
2018-08-10T14:41:31.244Z,0.80
2018-08-10T14:43:59.627Z,0.90
2018-08-10T14:46:28.213Z,1.03
2018-08-10T14:48:56.696Z,0.80
2018-08-10T14:51:25.075Z,1.03
2018-08-10T14:53:53.540Z,0.90
2018-08-10T14:56:21.918Z,0.90
2018-08-10T14:58:51.367Z,1.00
2018-08-10T15:01:19.911Z,0.80
2018-08-10T15:03:48.306Z,1.00
2018-08-10T15:06:17.584Z,0.77
2018-08-10T15:08:46.127Z,0.73
2018-08-10T15:11:15.337Z,0.93
2018-08-10T15:13:43.744Z,1.10
2018-08-10T15:16:12.972Z,0.90
2018-08-10T15:18:41.457Z,0.80
2018-08-10T15:21:09.920Z,0.90
2018-08-10T15:23:38.906Z,3.53
2018-08-10T15:26:07.326Z,0.97
2018-08-10T15:28:35.778Z,1.20
2018-08-10T15:31:04.168Z,1.23
2018-08-10T15:33:32.652Z,1.40
2018-08-10T15:36:02.473Z,0.70
2018-08-10T15:38:30.947Z,3.00
2018-08-10T15:40:59.913Z,1.00
2018-08-10T15:43:28.675Z,1.77
2018-08-10T15:45:57.144Z,2.43
2018-08-10T15:48:25.571Z,2.13
2018-08-10T15:50:53.980Z,1.67
2018-08-10T15:53:22.420Z,1.30
2018-08-10T15:55:50.902Z,0.90
2018-08-10T15:58:19.350Z,1.03
2018-08-10T16:00:47.809Z,1.00
2018-08-10T16:03:16.245Z,1.10
2018-08-10T16:05:44.649Z,1.30
2018-08-10T16:08:13.012Z,1.67
2018-08-10T16:10:41.387Z,1.57
2018-08-10T16:13:09.790Z,1.33
2018-08-10T16:15:38.340Z,1.47
2018-08-10T16:18:06.991Z,1.00
2018-08-10T16:20:35.436Z,1.30
2018-08-10T16:23:03.863Z,1.30
2018-08-10T16:25:33.230Z,1.00
2018-08-10T16:28:01.620Z,0.90
2018-08-10T16:30:30.039Z,1.03
2018-08-10T16:32:58.409Z,1.13
2018-08-10T16:35:26.849Z,1.43
2018-08-10T16:37:55.296Z,1.13
2018-08-10T16:40:23.680Z,1.83
2018-08-10T16:42:52.100Z,2.07
2018-08-10T16:45:20.476Z,1.50
2018-08-10T16:47:48.897Z,1.27
2018-08-10T16:50:18.579Z,0.90
2018-08-10T16:52:47.252Z,1.17
2018-08-10T16:55:17.985Z,1.00
2018-08-10T16:57:47.181Z,3.73
2018-08-10T17:00:17.465Z,4.70
2018-08-10T17:02:46.199Z,1.77
2018-08-10T17:05:14.676Z,1.20
2018-08-10T17:07:43.240Z,1.00
2018-08-10T17:10:11.802Z,1.40
2018-08-10T17:12:41.225Z,1.53
2018-08-10T17:15:12.387Z,1.00
2018-08-10T17:17:41.375Z,1.40
2018-08-10T17:20:10.465Z,1.10
2018-08-10T17:22:38.888Z,1.07
2018-08-10T17:25:08.408Z,1.10
2018-08-10T17:27:36.863Z,1.20
2018-08-10T17:30:07.266Z,1.57
2018-08-10T17:32:35.650Z,1.10
2018-08-10T17:35:04.089Z,1.40
2018-08-10T17:37:32.480Z,1.10
2018-08-10T17:40:00.897Z,0.90
2018-08-10T17:42:29.285Z,0.97
2018-08-10T17:44:57.674Z,1.33
2018-08-10T17:47:26.073Z,1.00
2018-08-10T17:49:54.468Z,0.90
2018-08-10T17:52:23.105Z,1.10
2018-08-10T17:54:51.511Z,0.90
2018-08-10T17:57:19.995Z,0.90
2018-08-10T17:59:48.359Z,1.00
2018-08-10T18:02:16.741Z,1.23
2018-08-10T18:04:45.156Z,1.50
2018-08-10T18:07:13.599Z,1.00
2018-08-10T18:09:42.035Z,1.30
2018-08-10T18:12:10.403Z,5.47
2018-08-10T18:14:38.793Z,3.17
2018-08-10T18:17:07.219Z,1.33
2018-08-10T18:19:35.607Z,1.30
2018-08-10T18:22:03.977Z,1.53
2018-08-10T18:24:32.409Z,1.27
2018-08-10T18:27:00.818Z,1.40
2018-08-10T18:29:29.216Z,1.13
2018-08-10T18:31:57.591Z,1.23
2018-08-10T18:34:26.030Z,1.20
2018-08-10T18:36:54.401Z,1.10
2018-08-10T18:39:22.787Z,1.20
2018-08-10T18:41:51.187Z,1.20
2018-08-10T18:44:19.618Z,1.30
2018-08-10T18:46:48.031Z,1.50
2018-08-10T18:49:16.394Z,1.30
2018-08-10T18:51:44.802Z,1.40
2018-08-10T18:54:13.164Z,1.60
2018-08-10T18:56:41.561Z,1.70
2018-08-10T18:59:09.968Z,1.53
2018-08-10T19:01:38.388Z,1.77
2018-08-10T19:04:06.762Z,1.50
2018-08-10T19:06:35.208Z,1.60
2018-08-10T19:09:03.865Z,1.60
2018-08-10T19:11:32.223Z,1.70
2018-08-10T19:14:00.671Z,1.47
2018-08-10T19:16:29.088Z,1.70
2018-08-10T19:18:57.522Z,1.60
2018-08-10T19:21:25.928Z,2.07
2018-08-10T19:23:54.306Z,2.50
2018-08-10T19:26:22.704Z,2.53
2018-08-10T19:28:51.084Z,2.70
2018-08-10T19:31:19.467Z,2.33
2018-08-10T19:33:48.472Z,3.13
2018-08-10T19:36:17.162Z,3.03
2018-08-10T19:38:45.844Z,2.20
2018-08-10T19:41:14.276Z,2.03
2018-08-10T19:43:42.678Z,2.53
2018-08-10T19:46:11.052Z,2.93
2018-08-10T19:48:40.068Z,3.17
2018-08-10T19:51:08.495Z,5.10
2018-08-10T19:53:37.943Z,5.70
2018-08-10T19:56:07.069Z,3.77
2018-08-10T19:58:35.405Z,2.43
2018-08-10T20:01:03.854Z,2.33
2018-08-10T20:03:32.294Z,4.17
2018-08-10T20:06:00.718Z,3.47
2018-08-10T20:08:29.816Z,4.27
2018-08-10T20:10:58.152Z,3.80
2018-08-10T20:13:26.558Z,4.30
2018-08-10T20:15:54.954Z,3.87
2018-08-10T20:18:23.361Z,3.17
2018-08-10T20:20:51.776Z,8.67
2018-08-10T20:23:20.229Z,7.63
2018-08-10T20:25:48.637Z,9.00
2018-08-10T20:28:17.063Z,7.13
2018-08-10T20:30:45.460Z,5.53
2018-08-10T20:33:13.875Z,7.10
2018-08-10T20:35:42.376Z,4.37
2018-08-10T20:38:10.838Z,4.23
2018-08-10T20:40:39.360Z,3.93
2018-08-10T20:43:07.780Z,4.23
2018-08-10T20:45:36.183Z,3.60
2018-08-10T20:48:04.596Z,3.63
2018-08-10T20:50:33.012Z,3.40
2018-08-10T20:53:01.436Z,4.33
2018-08-10T20:55:29.835Z,4.93
2018-08-10T20:57:58.214Z,9.00
2018-08-10T21:00:26.566Z,5.07
2018-08-10T21:02:54.972Z,3.83
2018-08-10T21:05:23.380Z,3.30
2018-08-10T21:07:51.792Z,3.50
2018-08-10T21:10:20.583Z,4.23
2018-08-10T21:12:48.932Z,3.60
2018-08-10T21:15:17.595Z,3.33
2018-08-10T21:17:46.665Z,3.60
2018-08-10T21:20:16.357Z,2.70
2018-08-10T21:22:44.724Z,3.17
2018-08-10T21:25:13.619Z,2.60
2018-08-10T21:27:42.536Z,3.07
2018-08-10T21:30:18.879Z,2.70
2018-08-10T21:32:47.878Z,4.17
2018-08-10T21:35:16.321Z,9.87
2018-08-10T21:37:45.054Z,3.50
2018-08-10T21:40:13.456Z,3.30
2018-08-10T21:42:42.726Z,3.67
2018-08-10T21:45:11.172Z,2.87
2018-08-10T21:47:39.545Z,2.93
2018-08-10T21:50:10.414Z,4.07
2018-08-10T21:52:38.800Z,3.37
2018-08-10T21:55:07.213Z,2.60
2018-08-10T21:57:35.621Z,2.73
2018-08-10T22:00:06.702Z,2.57
2018-08-10T22:02:35.118Z,2.73
2018-08-10T22:05:04.140Z,2.40
2018-08-10T22:07:32.558Z,2.47
2018-08-10T22:10:00.929Z,2.40
2018-08-10T22:12:29.431Z,2.50
2018-08-10T22:15:03.454Z,2.70
2018-08-10T22:17:37.662Z,3.43
2018-08-10T22:20:06.411Z,2.90
2018-08-10T22:22:34.827Z,3.27
2018-08-10T22:25:03.307Z,2.30
2018-08-10T22:27:32.285Z,2.77
2018-08-10T22:30:00.731Z,3.10
2018-08-10T22:32:29.146Z,4.80
2018-08-10T22:34:57.763Z,3.60
2018-08-10T22:37:26.176Z,3.30
2018-08-10T22:39:55.172Z,3.30
2018-08-10T22:42:23.650Z,2.40
2018-08-10T22:44:52.080Z,2.37
2018-08-10T22:47:20.476Z,2.70
2018-08-10T22:49:48.865Z,2.20
2018-08-10T22:52:17.313Z,1.90
2018-08-10T22:54:46.028Z,2.10
2018-08-10T22:57:14.451Z,2.20
2018-08-10T22:59:42.817Z,1.87
2018-08-10T23:02:11.159Z,2.10
2018-08-10T23:04:40.034Z,2.20
2018-08-10T23:07:08.720Z,2.80
2018-08-10T23:09:37.165Z,2.27
2018-08-10T23:12:05.603Z,2.47
2018-08-10T23:14:34.790Z,1.90
2018-08-10T23:17:03.239Z,2.30
2018-08-10T23:19:32.356Z,2.10
2018-08-10T23:22:00.832Z,1.83
2018-08-10T23:24:29.238Z,2.17
2018-08-10T23:26:57.657Z,1.67
2018-08-10T23:29:26.033Z,1.80
2018-08-10T23:31:54.408Z,1.90
2018-08-10T23:34:22.815Z,1.33
2018-08-10T23:36:51.197Z,1.90
2018-08-10T23:39:19.694Z,1.97
2018-08-10T23:41:48.090Z,1.73
2018-08-10T23:44:16.499Z,1.40
2018-08-10T23:46:44.875Z,1.63
2018-08-10T23:49:13.297Z,1.40
2018-08-10T23:51:41.774Z,1.40
2018-08-10T23:54:10.188Z,1.30
2018-08-10T23:56:38.571Z,1.60
2018-08-10T23:59:07.102Z,1.60
